Ana Sayfa
METAR-TAF:

METAR-TAF

Havaalanları :

Milas-Bodrum Havalimanı

Bodrum, Türkiye

Enlem: 37-14-53N, Boylam: 027-40-55E, yükseklik: 6 m

Güncel hava durumu gözlemi

Rapor saat 03:50 UTC de 25 dakika önce yapıldı.
Rüzgar güneydoğudan 5 kt
Sıcaklık 11°C
Nem 94%
Basınç 1018 hPa
Görüş mesafesi 10 km veya daha fazla
1500 m altında bulut yok ve kümülonimbus yok

METAR: LTFE 170350Z 14005KT CAVOK 11/10 Q1018 NOSIG RMK RWY10 VRB02KT

Saat: 07:15 (04:15 UTC)

Tahmin

Rapor saat 22:40 UTC de 5 saat ve 35 dakika önce yapıldı.
Ayın 17'si saat 00 UTC'den ayın 17'si saat 24 UTC'ye kadar geçerli Tahmin
Rüzgar değişken yönden 2 kt
Görüş mesafesi 10 km veya daha fazla
1500 m altında bulut yok ve kümülonimbus yok
Olasılık 40%
ayın 17'si saat 03 UTC'den ayın 17'si saat 06 UTC'ye kadar
Görüş mesafesi: 4000 m
Pus

TAF: LTFE 162240Z 1700/1724 VRB02KT CAVOK PROB40 1703/1706 4000 BR

4.000'den fazla havaalanı için hava durumu gözlemleri ve tahminleri (METAR ve TAF raporları).

Kullanılabilir istasyonlar harita üzerinde sarı ve kırmızı noktalarla gösterilir.

İstasyonun adını görmek için fareyi noktanın üzerinde gezdirin.

Sonrasında hava gözlem ve tahminlerini görmek için tıklayın.

Haritayı değiştirmek için: yaklaştırmak için siyah artı işaretli yeşil düğmeye ve uzaklaştırmak için de eksi işaretli düğmeye hızla tıklayın; bitişik haritalar için yeşil okları kullanın.


METAR-TAF: